sensor_id;sensor_type;location;lat;lon;timestamp;temperature;humidity
7461;DHT22;6757;52.258;12.840;2023-05-20T00:00:49;12.50;99.90
7461;DHT22;6757;52.258;12.840;2023-05-20T00:03:17;12.50;99.90
7461;DHT22;6757;52.258;12.840;2023-05-20T00:05:45;12.50;99.90
7461;DHT22;6757;52.258;12.840;2023-05-20T00:08:12;12.50;99.90
7461;DHT22;6757;52.258;12.840;2023-05-20T00:10:41;12.50;99.90
7461;DHT22;6757;52.258;12.840;2023-05-20T00:13:08;12.50;99.90
7461;DHT22;6757;52.258;12.840;2023-05-20T00:15:35;12.40;99.90
7461;DHT22;6757;52.258;12.840;2023-05-20T00:18:02;12.40;99.90
7461;DHT22;6757;52.258;12.840;2023-05-20T00:20:29;12.60;99.90
7461;DHT22;6757;52.258;12.840;2023-05-20T00:22:56;12.40;99.90
7461;DHT22;6757;52.258;12.840;2023-05-20T00:25:23;12.40;99.90
7461;DHT22;6757;52.258;12.840;2023-05-20T00:27:51;12.40;99.90
7461;DHT22;6757;52.258;12.840;2023-05-20T00:30:18;12.30;99.90
7461;DHT22;6757;52.258;12.840;2023-05-20T00:32:45;12.40;99.90
7461;DHT22;6757;52.258;12.840;2023-05-20T00:35:12;12.30;99.90
7461;DHT22;6757;52.258;12.840;2023-05-20T00:37:39;12.30;99.90
7461;DHT22;6757;52.258;12.840;2023-05-20T00:40:06;12.40;99.90
7461;DHT22;6757;52.258;12.840;2023-05-20T00:42:34;12.30;99.90
7461;DHT22;6757;52.258;12.840;2023-05-20T00:45:02;12.30;99.90
7461;DHT22;6757;52.258;12.840;2023-05-20T00:47:32;12.30;99.90
7461;DHT22;6757;52.258;12.840;2023-05-20T00:49:59;12.30;99.90
7461;DHT22;6757;52.258;12.840;2023-05-20T00:52:26;12.20;99.90
7461;DHT22;6757;52.258;12.840;2023-05-20T00:54:55;12.20;99.90
7461;DHT22;6757;52.258;12.840;2023-05-20T00:57:23;12.20;99.90
7461;DHT22;6757;52.258;12.840;2023-05-20T00:59:50;12.20;99.90
7461;DHT22;6757;52.258;12.840;2023-05-20T01:02:18;12.20;99.90
7461;DHT22;6757;52.258;12.840;2023-05-20T01:04:46;12.20;99.90
7461;DHT22;6757;52.258;12.840;2023-05-20T01:07:14;12.20;99.90
7461;DHT22;6757;52.258;12.840;2023-05-20T01:09:42;12.20;99.90
7461;DHT22;6757;52.258;12.840;2023-05-20T01:12:14;12.20;99.90
7461;DHT22;6757;52.258;12.840;2023-05-20T01:14:47;12.20;99.90
7461;DHT22;6757;52.258;12.840;2023-05-20T01:17:15;12.20;99.90
7461;DHT22;6757;52.258;12.840;2023-05-20T01:19:47;12.20;99.90
7461;DHT22;6757;52.258;12.840;2023-05-20T01:22:14;12.20;99.90
7461;DHT22;6757;52.258;12.840;2023-05-20T01:24:44;12.20;99.90
7461;DHT22;6757;52.258;12.840;2023-05-20T01:27:13;12.10;99.90
7461;DHT22;6757;52.258;12.840;2023-05-20T01:29:41;12.10;99.90
7461;DHT22;6757;52.258;12.840;2023-05-20T01:32:19;12.10;99.90
7461;DHT22;6757;52.258;12.840;2023-05-20T01:34:47;12.10;99.90
7461;DHT22;6757;52.258;12.840;2023-05-20T01:37:16;12.00;99.90
7461;DHT22;6757;52.258;12.840;2023-05-20T01:39:46;12.00;99.90
7461;DHT22;6757;52.258;12.840;2023-05-20T01:42:15;11.90;99.90
7461;DHT22;6757;52.258;12.840;2023-05-20T01:44:43;11.80;99.90
7461;DHT22;6757;52.258;12.840;2023-05-20T01:47:10;11.80;99.90
7461;DHT22;6757;52.258;12.840;2023-05-20T01:49:37;11.70;99.90
7461;DHT22;6757;52.258;12.840;2023-05-20T01:52:04;11.60;99.90
7461;DHT22;6757;52.258;12.840;2023-05-20T01:54:31;11.60;99.90
7461;DHT22;6757;52.258;12.840;2023-05-20T01:56:59;11.50;99.90
7461;DHT22;6757;52.258;12.840;2023-05-20T01:59:27;11.40;99.90
7461;DHT22;6757;52.258;12.840;2023-05-20T02:01:54;11.40;99.90
7461;DHT22;6757;52.258;12.840;2023-05-20T02:04:21;11.30;99.90
7461;DHT22;6757;52.258;12.840;2023-05-20T02:06:48;11.20;99.90
7461;DHT22;6757;52.258;12.840;2023-05-20T02:09:14;11.20;99.90
7461;DHT22;6757;52.258;12.840;2023-05-20T02:11:41;11.10;99.90
7461;DHT22;6757;52.258;12.840;2023-05-20T02:14:09;11.00;99.90
7461;DHT22;6757;52.258;12.840;2023-05-20T02:16:36;11.00;99.90
7461;DHT22;6757;52.258;12.840;2023-05-20T02:19:03;10.90;99.90
7461;DHT22;6757;52.258;12.840;2023-05-20T02:21:30;10.90;99.90
7461;DHT22;6757;52.258;12.840;2023-05-20T02:23:57;10.80;99.90
7461;DHT22;6757;52.258;12.840;2023-05-20T02:26:24;10.80;99.90
7461;DHT22;6757;52.258;12.840;2023-05-20T02:28:50;10.70;99.90
7461;DHT22;6757;52.258;12.840;2023-05-20T02:31:19;10.70;99.90
7461;DHT22;6757;52.258;12.840;2023-05-20T02:33:45;10.60;99.90
7461;DHT22;6757;52.258;12.840;2023-05-20T02:36:12;10.60;99.90
7461;DHT22;6757;52.258;12.840;2023-05-20T02:38:39;10.50;99.90
7461;DHT22;6757;52.258;12.840;2023-05-20T02:41:06;10.50;99.90
7461;DHT22;6757;52.258;12.840;2023-05-20T02:43:33;10.40;99.90
7461;DHT22;6757;52.258;12.840;2023-05-20T02:46:00;10.40;99.90
7461;DHT22;6757;52.258;12.840;2023-05-20T02:48:29;10.40;99.90
7461;DHT22;6757;52.258;12.840;2023-05-20T02:50:57;10.40;99.90
7461;DHT22;6757;52.258;12.840;2023-05-20T02:53:24;10.40;99.90
7461;DHT22;6757;52.258;12.840;2023-05-20T02:55:51;10.40;99.90
7461;DHT22;6757;52.258;12.840;2023-05-20T02:58:18;10.40;99.90
7461;DHT22;6757;52.258;12.840;2023-05-20T03:00:50;10.30;99.90
7461;DHT22;6757;52.258;12.840;2023-05-20T03:03:17;10.40;99.90
7461;DHT22;6757;52.258;12.840;2023-05-20T03:05:46;10.40;99.90
7461;DHT22;6757;52.258;12.840;2023-05-20T03:08:13;10.60;99.90
7461;DHT22;6757;52.258;12.840;2023-05-20T03:10:40;10.50;99.90
7461;DHT22;6757;52.258;12.840;2023-05-20T03:13:07;10.50;99.90
7461;DHT22;6757;52.258;12.840;2023-05-20T03:15:35;10.50;99.90
7461;DHT22;6757;52.258;12.840;2023-05-20T03:18:02;10.60;99.90
7461;DHT22;6757;52.258;12.840;2023-05-20T03:20:29;10.60;99.90
7461;DHT22;6757;52.258;12.840;2023-05-20T03:22:58;10.60;99.90
7461;DHT22;6757;52.258;12.840;2023-05-20T03:25:26;10.70;99.90
7461;DHT22;6757;52.258;12.840;2023-05-20T03:27:53;10.70;99.90
7461;DHT22;6757;52.258;12.840;2023-05-20T03:30:20;10.70;99.90
7461;DHT22;6757;52.258;12.840;2023-05-20T03:32:47;10.70;99.90
7461;DHT22;6757;52.258;12.840;2023-05-20T03:35:15;10.70;99.90
7461;DHT22;6757;52.258;12.840;2023-05-20T03:37:42;10.80;99.90
7461;DHT22;6757;52.258;12.840;2023-05-20T03:40:10;10.80;99.90
7461;DHT22;6757;52.258;12.840;2023-05-20T03:42:38;10.80;99.90
7461;DHT22;6757;52.258;12.840;2023-05-20T03:45:05;10.80;99.90
7461;DHT22;6757;52.258;12.840;2023-05-20T03:47:33;10.90;99.90
7461;DHT22;6757;52.258;12.840;2023-05-20T03:50:00;10.90;99.90
7461;DHT22;6757;52.258;12.840;2023-05-20T03:52:26;10.90;99.90
7461;DHT22;6757;52.258;12.840;2023-05-20T03:54:53;11.00;99.90
7461;DHT22;6757;52.258;12.840;2023-05-20T03:57:22;11.00;99.90
7461;DHT22;6757;52.258;12.840;2023-05-20T03:59:49;11.00;99.90
7461;DHT22;6757;52.258;12.840;2023-05-20T04:02:16;11.10;99.90
7461;DHT22;6757;52.258;12.840;2023-05-20T04:04:43;11.10;99.90
7461;DHT22;6757;52.258;12.840;2023-05-20T04:07:11;11.10;99.90
7461;DHT22;6757;52.258;12.840;2023-05-20T04:09:38;11.10;99.90
7461;DHT22;6757;52.258;12.840;2023-05-20T04:12:05;11.20;99.90
7461;DHT22;6757;52.258;12.840;2023-05-20T04:14:33;11.20;99.90
7461;DHT22;6757;52.258;12.840;2023-05-20T04:17:01;11.20;99.90
7461;DHT22;6757;52.258;12.840;2023-05-20T04:19:28;11.30;99.90
7461;DHT22;6757;52.258;12.840;2023-05-20T04:21:55;11.30;99.90
7461;DHT22;6757;52.258;12.840;2023-05-20T04:24:22;11.30;99.90
7461;DHT22;6757;52.258;12.840;2023-05-20T04:26:50;11.30;99.90
7461;DHT22;6757;52.258;12.840;2023-05-20T04:29:17;11.30;99.90
7461;DHT22;6757;52.258;12.840;2023-05-20T04:31:45;11.30;99.90
7461;DHT22;6757;52.258;12.840;2023-05-20T04:34:13;11.40;99.90
7461;DHT22;6757;52.258;12.840;2023-05-20T04:36:43;11.40;99.90
7461;DHT22;6757;52.258;12.840;2023-05-20T04:39:10;11.40;99.90
7461;DHT22;6757;52.258;12.840;2023-05-20T04:41:38;12.00;99.90
7461;DHT22;6757;52.258;12.840;2023-05-20T04:44:05;11.50;99.90
7461;DHT22;6757;52.258;12.840;2023-05-20T04:46:31;11.50;99.90
7461;DHT22;6757;52.258;12.840;2023-05-20T04:49:00;11.60;99.90
7461;DHT22;6757;52.258;12.840;2023-05-20T04:51:28;11.60;99.90
7461;DHT22;6757;52.258;12.840;2023-05-20T04:53:55;11.60;99.90
7461;DHT22;6757;52.258;12.840;2023-05-20T04:56:23;11.60;99.90
7461;DHT22;6757;52.258;12.840;2023-05-20T04:58:50;11.70;99.90
7461;DHT22;6757;52.258;12.840;2023-05-20T05:01:17;11.70;99.90
7461;DHT22;6757;52.258;12.840;2023-05-20T05:03:44;11.70;99.90
7461;DHT22;6757;52.258;12.840;2023-05-20T05:06:13;11.80;99.90
7461;DHT22;6757;52.258;12.840;2023-05-20T05:08:39;11.80;99.90
7461;DHT22;6757;52.258;12.840;2023-05-20T05:11:06;11.80;99.90
7461;DHT22;6757;52.258;12.840;2023-05-20T05:13:33;11.90;99.90
7461;DHT22;6757;52.258;12.840;2023-05-20T05:16:01;11.90;99.90
7461;DHT22;6757;52.258;12.840;2023-05-20T05:18:29;11.90;99.90
7461;DHT22;6757;52.258;12.840;2023-05-20T05:21:00;11.90;99.90
7461;DHT22;6757;52.258;12.840;2023-05-20T05:23:28;11.90;99.90
7461;DHT22;6757;52.258;12.840;2023-05-20T05:25:55;11.90;99.90
7461;DHT22;6757;52.258;12.840;2023-05-20T05:28:23;11.90;99.90
7461;DHT22;6757;52.258;12.840;2023-05-20T05:30:50;11.90;99.90
7461;DHT22;6757;52.258;12.840;2023-05-20T05:33:17;12.00;99.90
7461;DHT22;6757;52.258;12.840;2023-05-20T05:35:44;12.00;99.90
7461;DHT22;6757;52.258;12.840;2023-05-20T05:38:11;12.00;99.90
7461;DHT22;6757;52.258;12.840;2023-05-20T05:40:39;12.00;99.90
7461;DHT22;6757;52.258;12.840;2023-05-20T05:43:07;12.00;99.90
7461;DHT22;6757;52.258;12.840;2023-05-20T05:45:34;12.00;99.90
7461;DHT22;6757;52.258;12.840;2023-05-20T05:48:00;12.00;99.90
7461;DHT22;6757;52.258;12.840;2023-05-20T05:50:27;12.00;99.90
7461;DHT22;6757;52.258;12.840;2023-05-20T05:52:54;12.00;99.90
7461;DHT22;6757;52.258;12.840;2023-05-20T05:55:21;12.00;99.90
7461;DHT22;6757;52.258;12.840;2023-05-20T05:57:50;12.00;99.90
7461;DHT22;6757;52.258;12.840;2023-05-20T06:00:17;12.10;99.90
7461;DHT22;6757;52.258;12.840;2023-05-20T06:02:44;12.10;99.90
7461;DHT22;6757;52.258;12.840;2023-05-20T06:05:11;12.10;99.90
7461;DHT22;6757;52.258;12.840;2023-05-20T06:07:38;12.20;99.90
7461;DHT22;6757;52.258;12.840;2023-05-20T06:10:06;12.20;99.90
7461;DHT22;6757;52.258;12.840;2023-05-20T06:12:33;12.20;99.90
7461;DHT22;6757;52.258;12.840;2023-05-20T06:15:02;12.20;99.90
7461;DHT22;6757;52.258;12.840;2023-05-20T06:17:29;12.30;99.90
7461;DHT22;6757;52.258;12.840;2023-05-20T06:19:56;12.30;99.90
7461;DHT22;6757;52.258;12.840;2023-05-20T06:22:23;12.30;99.90
7461;DHT22;6757;52.258;12.840;2023-05-20T06:24:50;12.40;99.90
7461;DHT22;6757;52.258;12.840;2023-05-20T06:27:16;12.40;99.90
7461;DHT22;6757;52.258;12.840;2023-05-20T06:29:43;12.40;99.90
7461;DHT22;6757;52.258;12.840;2023-05-20T06:32:11;12.40;99.90
7461;DHT22;6757;52.258;12.840;2023-05-20T06:34:38;12.40;99.90
7461;DHT22;6757;52.258;12.840;2023-05-20T06:37:05;12.40;99.90
7461;DHT22;6757;52.258;12.840;2023-05-20T06:39:32;12.50;99.90
7461;DHT22;6757;52.258;12.840;2023-05-20T06:41:59;12.60;99.90
7461;DHT22;6757;52.258;12.840;2023-05-20T06:44:26;12.70;99.90
7461;DHT22;6757;52.258;12.840;2023-05-20T06:46:52;12.70;99.90
7461;DHT22;6757;52.258;12.840;2023-05-20T06:49:21;12.70;99.90
7461;DHT22;6757;52.258;12.840;2023-05-20T06:51:49;12.70;99.90
7461;DHT22;6757;52.258;12.840;2023-05-20T06:54:16;12.80;99.90
7461;DHT22;6757;52.258;12.840;2023-05-20T06:56:42;12.90;99.90
7461;DHT22;6757;52.258;12.840;2023-05-20T06:59:09;12.90;99.90
7461;DHT22;6757;52.258;12.840;2023-05-20T07:01:36;12.80;99.90
7461;DHT22;6757;52.258;12.840;2023-05-20T07:04:03;13.00;99.90
7461;DHT22;6757;52.258;12.840;2023-05-20T07:06:31;12.90;99.90
7461;DHT22;6757;52.258;12.840;2023-05-20T07:08:58;13.00;99.90
7461;DHT22;6757;52.258;12.840;2023-05-20T07:11:26;13.00;99.90
7461;DHT22;6757;52.258;12.840;2023-05-20T07:13:53;13.00;99.90
7461;DHT22;6757;52.258;12.840;2023-05-20T07:16:20;13.10;99.90
7461;DHT22;6757;52.258;12.840;2023-05-20T07:18:46;13.10;99.90
7461;DHT22;6757;52.258;12.840;2023-05-20T07:21:13;13.10;99.90
7461;DHT22;6757;52.258;12.840;2023-05-20T07:23:41;13.10;99.90
7461;DHT22;6757;52.258;12.840;2023-05-20T07:26:08;13.20;99.90
7461;DHT22;6757;52.258;12.840;2023-05-20T07:28:36;13.20;99.90
7461;DHT22;6757;52.258;12.840;2023-05-20T07:31:04;13.30;99.90
7461;DHT22;6757;52.258;12.840;2023-05-20T07:33:31;13.40;99.90
7461;DHT22;6757;52.258;12.840;2023-05-20T07:35:57;13.50;99.90
7461;DHT22;6757;52.258;12.840;2023-05-20T07:38:24;13.50;99.90
7461;DHT22;6757;52.258;12.840;2023-05-20T07:40:53;13.60;99.90
7461;DHT22;6757;52.258;12.840;2023-05-20T07:43:19;13.70;99.90
7461;DHT22;6757;52.258;12.840;2023-05-20T07:45:46;13.80;99.90
7461;DHT22;6757;52.258;12.840;2023-05-20T07:48:13;13.80;99.90
7461;DHT22;6757;52.258;12.840;2023-05-20T07:50:40;13.90;99.90
7461;DHT22;6757;52.258;12.840;2023-05-20T07:53:07;14.00;99.90
7461;DHT22;6757;52.258;12.840;2023-05-20T07:55:34;14.10;99.90
7461;DHT22;6757;52.258;12.840;2023-05-20T07:58:03;14.20;99.90
7461;DHT22;6757;52.258;12.840;2023-05-20T08:00:29;14.20;99.90
7461;DHT22;6757;52.258;12.840;2023-05-20T08:02:56;14.40;99.90
7461;DHT22;6757;52.258;12.840;2023-05-20T08:05:23;14.40;99.90
7461;DHT22;6757;52.258;12.840;2023-05-20T08:07:51;14.50;99.90
7461;DHT22;6757;52.258;12.840;2023-05-20T08:10:18;14.60;99.90
7461;DHT22;6757;52.258;12.840;2023-05-20T08:12:46;14.70;99.90
7461;DHT22;6757;52.258;12.840;2023-05-20T08:15:14;14.70;99.90
7461;DHT22;6757;52.258;12.840;2023-05-20T08:17:41;14.80;99.90
7461;DHT22;6757;52.258;12.840;2023-05-20T08:20:08;14.90;99.90
7461;DHT22;6757;52.258;12.840;2023-05-20T08:22:37;15.00;99.90
7461;DHT22;6757;52.258;12.840;2023-05-20T08:25:07;15.10;99.90
7461;DHT22;6757;52.258;12.840;2023-05-20T08:27:34;15.20;99.90
7461;DHT22;6757;52.258;12.840;2023-05-20T08:30:01;15.30;99.90
7461;DHT22;6757;52.258;12.840;2023-05-20T08:32:30;15.90;99.90
7461;DHT22;6757;52.258;12.840;2023-05-20T08:34:57;15.40;99.90
7461;DHT22;6757;52.258;12.840;2023-05-20T08:37:26;15.40;99.90
7461;DHT22;6757;52.258;12.840;2023-05-20T08:39:53;15.50;99.90
7461;DHT22;6757;52.258;12.840;2023-05-20T08:42:21;15.60;99.90
7461;DHT22;6757;52.258;12.840;2023-05-20T08:44:50;15.60;99.90
7461;DHT22;6757;52.258;12.840;2023-05-20T08:47:18;15.60;99.90
7461;DHT22;6757;52.258;12.840;2023-05-20T08:49:47;15.60;99.90
7461;DHT22;6757;52.258;12.840;2023-05-20T08:52:15;15.70;99.90
7461;DHT22;6757;52.258;12.840;2023-05-20T08:54:44;15.60;99.90
7461;DHT22;6757;52.258;12.840;2023-05-20T08:57:14;15.70;99.90
7461;DHT22;6757;52.258;12.840;2023-05-20T08:59:42;15.70;99.90
7461;DHT22;6757;52.258;12.840;2023-05-20T09:02:11;15.70;99.90
7461;DHT22;6757;52.258;12.840;2023-05-20T09:04:38;15.80;99.90
7461;DHT22;6757;52.258;12.840;2023-05-20T09:07:06;15.90;99.90
7461;DHT22;6757;52.258;12.840;2023-05-20T09:09:34;15.80;99.90
7461;DHT22;6757;52.258;12.840;2023-05-20T09:12:02;15.90;99.90
7461;DHT22;6757;52.258;12.840;2023-05-20T09:14:29;15.90;99.90
7461;DHT22;6757;52.258;12.840;2023-05-20T09:16:56;15.90;99.90
7461;DHT22;6757;52.258;12.840;2023-05-20T09:19:23;15.90;99.90
7461;DHT22;6757;52.258;12.840;2023-05-20T09:21:52;15.90;99.90
7461;DHT22;6757;52.258;12.840;2023-05-20T09:24:24;15.90;99.90
7461;DHT22;6757;52.258;12.840;2023-05-20T09:26:51;15.90;99.90
7461;DHT22;6757;52.258;12.840;2023-05-20T09:29:18;15.90;99.90
7461;DHT22;6757;52.258;12.840;2023-05-20T09:31:46;15.90;99.90
7461;DHT22;6757;52.258;12.840;2023-05-20T09:34:13;15.90;99.90
7461;DHT22;6757;52.258;12.840;2023-05-20T09:36:42;15.90;99.90
7461;DHT22;6757;52.258;12.840;2023-05-20T09:39:13;16.00;99.90
7461;DHT22;6757;52.258;12.840;2023-05-20T09:41:50;16.10;99.90
7461;DHT22;6757;52.258;12.840;2023-05-20T09:44:21;16.10;99.90
7461;DHT22;6757;52.258;12.840;2023-05-20T09:46:49;16.20;99.90
7461;DHT22;6757;52.258;12.840;2023-05-20T09:49:18;16.20;99.90
7461;DHT22;6757;52.258;12.840;2023-05-20T09:51:47;16.30;99.90
7461;DHT22;6757;52.258;12.840;2023-05-20T09:54:14;16.30;99.90
7461;DHT22;6757;52.258;12.840;2023-05-20T09:56:45;16.30;99.90
7461;DHT22;6757;52.258;12.840;2023-05-20T09:59:13;16.30;99.90
7461;DHT22;6757;52.258;12.840;2023-05-20T10:01:41;16.40;99.90
7461;DHT22;6757;52.258;12.840;2023-05-20T10:04:08;16.40;99.90
7461;DHT22;6757;52.258;12.840;2023-05-20T10:06:48;16.50;99.90
7461;DHT22;6757;52.258;12.840;2023-05-20T10:09:46;16.50;99.90
7461;DHT22;6757;52.258;12.840;2023-05-20T10:12:28;16.50;99.90
7461;DHT22;6757;52.258;12.840;2023-05-20T10:15:09;16.60;99.90
7461;DHT22;6757;52.258;12.840;2023-05-20T10:17:45;16.70;99.90
7461;DHT22;6757;52.258;12.840;2023-05-20T10:20:22;16.80;99.90
7461;DHT22;6757;52.258;12.840;2023-05-20T10:22:54;16.90;99.90
7461;DHT22;6757;52.258;12.840;2023-05-20T10:25:24;17.10;99.90
7461;DHT22;6757;52.258;12.840;2023-05-20T10:28:03;17.20;99.90
7461;DHT22;6757;52.258;12.840;2023-05-20T10:30:32;17.30;99.90
7461;DHT22;6757;52.258;12.840;2023-05-20T10:33:03;17.40;99.90
7461;DHT22;6757;52.258;12.840;2023-05-20T10:35:32;17.60;99.90
7461;DHT22;6757;52.258;12.840;2023-05-20T10:38:09;17.60;99.90
7461;DHT22;6757;52.258;12.840;2023-05-20T10:40:37;17.70;99.90
7461;DHT22;6757;52.258;12.840;2023-05-20T10:43:09;17.80;99.90
7461;DHT22;6757;52.258;12.840;2023-05-20T10:45:47;17.80;99.90
7461;DHT22;6757;52.258;12.840;2023-05-20T10:48:20;17.90;99.90
7461;DHT22;6757;52.258;12.840;2023-05-20T10:50:50;18.00;99.90
7461;DHT22;6757;52.258;12.840;2023-05-20T10:53:22;18.10;99.90
7461;DHT22;6757;52.258;12.840;2023-05-20T10:55:51;18.10;99.90
7461;DHT22;6757;52.258;12.840;2023-05-20T10:58:21;18.20;99.90
7461;DHT22;6757;52.258;12.840;2023-05-20T11:00:52;18.10;99.90
7461;DHT22;6757;52.258;12.840;2023-05-20T11:03:21;18.10;99.90
7461;DHT22;6757;52.258;12.840;2023-05-20T11:05:48;18.00;99.90
7461;DHT22;6757;52.258;12.840;2023-05-20T11:08:16;18.10;99.90
7461;DHT22;6757;52.258;12.840;2023-05-20T11:10:43;18.10;99.90
7461;DHT22;6757;52.258;12.840;2023-05-20T11:13:12;18.20;99.90
7461;DHT22;6757;52.258;12.840;2023-05-20T11:15:41;18.20;99.90
7461;DHT22;6757;52.258;12.840;2023-05-20T11:18:10;18.30;99.90
7461;DHT22;6757;52.258;12.840;2023-05-20T11:20:39;18.40;99.90
7461;DHT22;6757;52.258;12.840;2023-05-20T11:23:10;18.60;99.90
7461;DHT22;6757;52.258;12.840;2023-05-20T11:25:40;18.50;99.90
7461;DHT22;6757;52.258;12.840;2023-05-20T11:28:10;18.60;99.90
7461;DHT22;6757;52.258;12.840;2023-05-20T11:30:38;18.70;99.90
7461;DHT22;6757;52.258;12.840;2023-05-20T11:33:11;18.70;99.90
7461;DHT22;6757;52.258;12.840;2023-05-20T11:35:44;18.80;99.90
7461;DHT22;6757;52.258;12.840;2023-05-20T11:38:12;18.90;99.90
7461;DHT22;6757;52.258;12.840;2023-05-20T11:40:42;19.00;99.90
7461;DHT22;6757;52.258;12.840;2023-05-20T11:43:12;19.20;99.90
7461;DHT22;6757;52.258;12.840;2023-05-20T11:45:41;19.40;99.90
7461;DHT22;6757;52.258;12.840;2023-05-20T11:48:11;19.60;99.90
7461;DHT22;6757;52.258;12.840;2023-05-20T11:50:41;19.80;99.90
7461;DHT22;6757;52.258;12.840;2023-05-20T11:53:09;20.10;99.90
7461;DHT22;6757;52.258;12.840;2023-05-20T11:55:44;20.40;99.90
7461;DHT22;6757;52.258;12.840;2023-05-20T11:58:15;20.70;99.90
7461;DHT22;6757;52.258;12.840;2023-05-20T12:00:42;21.00;99.90
7461;DHT22;6757;52.258;12.840;2023-05-20T12:03:11;21.20;99.90
7461;DHT22;6757;52.258;12.840;2023-05-20T12:05:39;21.60;99.90
7461;DHT22;6757;52.258;12.840;2023-05-20T12:08:06;22.00;99.90
7461;DHT22;6757;52.258;12.840;2023-05-20T12:10:33;22.60;99.90
7461;DHT22;6757;52.258;12.840;2023-05-20T12:13:02;23.10;99.90
7461;DHT22;6757;52.258;12.840;2023-05-20T12:15:33;23.50;99.90
7461;DHT22;6757;52.258;12.840;2023-05-20T12:18:00;23.60;99.90
7461;DHT22;6757;52.258;12.840;2023-05-20T12:20:29;23.80;99.90
7461;DHT22;6757;52.258;12.840;2023-05-20T12:22:59;24.10;99.90
7461;DHT22;6757;52.258;12.840;2023-05-20T12:25:26;24.50;99.90
7461;DHT22;6757;52.258;12.840;2023-05-20T12:27:54;24.90;98.60
7461;DHT22;6757;52.258;12.840;2023-05-20T12:30:22;25.30;97.00
7461;DHT22;6757;52.258;12.840;2023-05-20T12:32:50;25.70;95.50
7461;DHT22;6757;52.258;12.840;2023-05-20T12:35:23;26.10;93.90
7461;DHT22;6757;52.258;12.840;2023-05-20T12:37:52;26.30;92.40
7461;DHT22;6757;52.258;12.840;2023-05-20T12:40:20;26.30;91.40
7461;DHT22;6757;52.258;12.840;2023-05-20T12:42:47;26.30;90.80
7461;DHT22;6757;52.258;12.840;2023-05-20T12:45:14;26.30;90.20
7461;DHT22;6757;52.258;12.840;2023-05-20T12:47:41;26.30;89.40
7461;DHT22;6757;52.258;12.840;2023-05-20T12:50:08;26.10;88.60
7461;DHT22;6757;52.258;12.840;2023-05-20T12:52:36;26.10;88.10
7461;DHT22;6757;52.258;12.840;2023-05-20T12:55:05;26.20;87.60
7461;DHT22;6757;52.258;12.840;2023-05-20T12:57:38;26.30;87.20
7461;DHT22;6757;52.258;12.840;2023-05-20T13:00:06;26.70;86.50
7461;DHT22;6757;52.258;12.840;2023-05-20T13:02:34;26.80;85.00
7461;DHT22;6757;52.258;12.840;2023-05-20T13:05:01;26.90;84.10
7461;DHT22;6757;52.258;12.840;2023-05-20T13:07:29;27.00;83.00
7461;DHT22;6757;52.258;12.840;2023-05-20T13:09:56;27.10;82.00
7461;DHT22;6757;52.258;12.840;2023-05-20T13:12:24;27.30;81.30
7461;DHT22;6757;52.258;12.840;2023-05-20T13:14:51;27.70;80.40
7461;DHT22;6757;52.258;12.840;2023-05-20T13:17:18;28.10;79.20
7461;DHT22;6757;52.258;12.840;2023-05-20T13:19:45;28.50;78.40
7461;DHT22;6757;52.258;12.840;2023-05-20T13:22:12;28.90;76.70
7461;DHT22;6757;52.258;12.840;2023-05-20T13:24:40;29.30;75.50
7461;DHT22;6757;52.258;12.840;2023-05-20T13:27:07;29.70;74.70
7461;DHT22;6757;52.258;12.840;2023-05-20T13:29:35;30.00;72.90
7461;DHT22;6757;52.258;12.840;2023-05-20T13:32:02;30.30;71.60
7461;DHT22;6757;52.258;12.840;2023-05-20T13:34:30;30.50;70.70
7461;DHT22;6757;52.258;12.840;2023-05-20T13:36:57;30.70;69.90
7461;DHT22;6757;52.258;12.840;2023-05-20T13:39:24;31.00;68.80
7461;DHT22;6757;52.258;12.840;2023-05-20T13:41:51;31.30;68.00
7461;DHT22;6757;52.258;12.840;2023-05-20T13:44:19;31.50;67.10
7461;DHT22;6757;52.258;12.840;2023-05-20T13:46:47;31.50;66.00
7461;DHT22;6757;52.258;12.840;2023-05-20T13:49:14;31.90;65.50
7461;DHT22;6757;52.258;12.840;2023-05-20T13:51:41;31.90;64.20
7461;DHT22;6757;52.258;12.840;2023-05-20T13:54:08;31.90;63.60
7461;DHT22;6757;52.258;12.840;2023-05-20T13:56:35;31.90;63.10
7461;DHT22;6757;52.258;12.840;2023-05-20T13:59:02;31.90;63.00
7461;DHT22;6757;52.258;12.840;2023-05-20T14:01:29;31.90;62.80
7461;DHT22;6757;52.258;12.840;2023-05-20T14:03:59;31.90;62.60
7461;DHT22;6757;52.258;12.840;2023-05-20T14:06:26;31.80;62.40
7461;DHT22;6757;52.258;12.840;2023-05-20T14:08:55;31.70;62.50
7461;DHT22;6757;52.258;12.840;2023-05-20T14:11:22;31.60;62.30
7461;DHT22;6757;52.258;12.840;2023-05-20T14:13:49;31.60;62.20
7461;DHT22;6757;52.258;12.840;2023-05-20T14:16:16;31.40;62.00
7461;DHT22;6757;52.258;12.840;2023-05-20T14:18:43;31.30;61.90
7461;DHT22;6757;52.258;12.840;2023-05-20T14:21:11;31.30;62.00
7461;DHT22;6757;52.258;12.840;2023-05-20T14:23:39;31.30;62.00
7461;DHT22;6757;52.258;12.840;2023-05-20T14:26:08;31.40;61.90
7461;DHT22;6757;52.258;12.840;2023-05-20T14:28:35;31.40;61.60
7461;DHT22;6757;52.258;12.840;2023-05-20T14:31:03;31.50;61.40
7461;DHT22;6757;52.258;12.840;2023-05-20T14:33:30;31.50;61.10
7461;DHT22;6757;52.258;12.840;2023-05-20T14:35:57;31.60;61.10
7461;DHT22;6757;52.258;12.840;2023-05-20T14:38:25;31.20;60.90
7461;DHT22;6757;52.258;12.840;2023-05-20T14:40:52;31.40;61.10
7461;DHT22;6757;52.258;12.840;2023-05-20T14:43:19;31.50;61.10
7461;DHT22;6757;52.258;12.840;2023-05-20T14:45:46;31.50;60.90
7461;DHT22;6757;52.258;12.840;2023-05-20T14:48:13;31.50;60.80
7461;DHT22;6757;52.258;12.840;2023-05-20T14:50:40;31.50;60.70
7461;DHT22;6757;52.258;12.840;2023-05-20T14:53:07;31.50;60.70
7461;DHT22;6757;52.258;12.840;2023-05-20T14:55:35;31.50;60.60
7461;DHT22;6757;52.258;12.840;2023-05-20T14:58:02;31.50;60.60
7461;DHT22;6757;52.258;12.840;2023-05-20T15:00:29;31.50;60.50
7461;DHT22;6757;52.258;12.840;2023-05-20T15:02:57;31.40;60.20
7461;DHT22;6757;52.258;12.840;2023-05-20T15:05:24;31.30;60.20
7461;DHT22;6757;52.258;12.840;2023-05-20T15:07:50;31.20;60.30
7461;DHT22;6757;52.258;12.840;2023-05-20T15:10:17;31.10;60.40
7461;DHT22;6757;52.258;12.840;2023-05-20T15:12:46;31.10;60.50
7461;DHT22;6757;52.258;12.840;2023-05-20T15:15:13;31.00;60.50
7461;DHT22;6757;52.258;12.840;2023-05-20T15:17:39;31.00;60.50
7461;DHT22;6757;52.258;12.840;2023-05-20T15:20:07;31.00;60.60
7461;DHT22;6757;52.258;12.840;2023-05-20T15:22:35;31.00;60.60
7461;DHT22;6757;52.258;12.840;2023-05-20T15:25:03;31.20;60.60
7461;DHT22;6757;52.258;12.840;2023-05-20T15:27:30;31.00;60.50
7461;DHT22;6757;52.258;12.840;2023-05-20T15:29:58;31.00;60.40
7461;DHT22;6757;52.258;12.840;2023-05-20T15:32:25;31.00;60.50
7461;DHT22;6757;52.258;12.840;2023-05-20T15:34:52;30.80;60.40
7461;DHT22;6757;52.258;12.840;2023-05-20T15:37:19;30.70;60.50
7461;DHT22;6757;52.258;12.840;2023-05-20T15:39:46;30.70;60.60
7461;DHT22;6757;52.258;12.840;2023-05-20T15:42:13;30.40;60.60
7461;DHT22;6757;52.258;12.840;2023-05-20T15:44:42;30.30;60.70
7461;DHT22;6757;52.258;12.840;2023-05-20T15:47:11;30.20;61.00
7461;DHT22;6757;52.258;12.840;2023-05-20T15:49:38;30.00;61.10